sensor_id;sensor_type;location;lat;lon;timestamp;P1;durP1;ratioP1;P2;durP2;ratioP2
62457;SDS011;48509;52.122;5.250;2023-03-01T00:01:12;25.8;;;20.0;;
62457;SDS011;48509;52.122;5.250;2023-03-01T00:02:49;32.21;;;21.1;;
62457;SDS011;48509;52.122;5.250;2023-03-01T00:04:26;24.5;;;18.11;;
62457;SDS011;48509;52.122;5.250;2023-03-01T00:06:03;21.8;;;18.11;;
62457;SDS011;48509;52.122;5.250;2023-03-01T00:09:16;26.0;;;22.2;;
62457;SDS011;48509;52.122;5.250;2023-03-01T00:11:01;32.9;;;24.8;;
62457;SDS011;48509;52.122;5.250;2023-03-01T00:12:39;27.6;;;21.3;;
62457;SDS011;48509;52.122;5.250;2023-03-01T00:15:51;28.8;;;19.2;;
62457;SDS011;48509;52.122;5.250;2023-03-01T00:17:28;25.7;;;20.0;;
62457;SDS011;48509;52.122;5.250;2023-03-01T00:19:04;26.7;;;20.6;;
62457;SDS011;48509;52.122;5.250;2023-03-01T00:20:41;24.4;;;21.4;;
62457;SDS011;48509;52.122;5.250;2023-03-01T00:23:54;29.8;;;22.1;;
62457;SDS011;48509;52.122;5.250;2023-03-01T00:25:30;29.4;;;21.2;;
62457;SDS011;48509;52.122;5.250;2023-03-01T00:27:07;28.6;;;22.9;;
62457;SDS011;48509;52.122;5.250;2023-03-01T00:30:20;30.2;;;23.0;;
62457;SDS011;48509;52.122;5.250;2023-03-01T00:31:56;26.5;;;22.2;;
62457;SDS011;48509;52.122;5.250;2023-03-01T00:33:32;23.8;;;19.7;;
62457;SDS011;48509;52.122;5.250;2023-03-01T00:36:45;23.6;;;19.5;;
62457;SDS011;48509;52.122;5.250;2023-03-01T00:38:22;21.6;;;18.41;;
62457;SDS011;48509;52.122;5.250;2023-03-01T00:39:58;28.5;;;23.6;;
62457;SDS011;48509;52.122;5.250;2023-03-01T00:41:34;29.6;;;24.1;;
62457;SDS011;48509;52.122;5.250;2023-03-01T00:44:46;28.6;;;23.5;;
62457;SDS011;48509;52.122;5.250;2023-03-01T00:46:23;30.0;;;23.9;;
62457;SDS011;48509;52.122;5.250;2023-03-01T00:48:02;28.3;;;23.3;;
62457;SDS011;48509;52.122;5.250;2023-03-01T00:51:14;27.5;;;21.9;;
62457;SDS011;48509;52.122;5.250;2023-03-01T00:52:53;31.1;;;23.8;;
62457;SDS011;48509;52.122;5.250;2023-03-01T00:54:30;29.5;;;22.7;;
62457;SDS011;48509;52.122;5.250;2023-03-01T00:57:45;33.9;;;27.3;;
62457;SDS011;48509;52.122;5.250;2023-03-01T00:59:21;31.8;;;23.7;;
62457;SDS011;48509;52.122;5.250;2023-03-01T01:00:58;35.0;;;25.3;;
62457;SDS011;48509;52.122;5.250;2023-03-01T01:02:34;32.4;;;24.2;;
62457;SDS011;48509;52.122;5.250;2023-03-01T01:05:49;40.31;;;21.5;;
62457;SDS011;48509;52.122;5.250;2023-03-01T01:07:25;27.1;;;23.0;;
62457;SDS011;48509;52.122;5.250;2023-03-01T01:09:02;31.8;;;23.4;;
62457;SDS011;48509;52.122;5.250;2023-03-01T01:12:20;25.6;;;19.41;;
62457;SDS011;48509;52.122;5.250;2023-03-01T01:13:56;25.1;;;20.6;;
62457;SDS011;48509;52.122;5.250;2023-03-01T01:15:33;26.8;;;23.8;;
62457;SDS011;48509;52.122;5.250;2023-03-01T01:17:10;31.6;;;22.3;;
62457;SDS011;48509;52.122;5.250;2023-03-01T01:20:22;31.2;;;25.3;;
62457;SDS011;48509;52.122;5.250;2023-03-01T01:21:58;28.6;;;22.4;;
62457;SDS011;48509;52.122;5.250;2023-03-01T01:23:35;32.8;;;28.3;;
62457;SDS011;48509;52.122;5.250;2023-03-01T01:26:48;34.31;;;24.8;;
62457;SDS011;48509;52.122;5.250;2023-03-01T01:28:25;25.2;;;19.91;;
62457;SDS011;48509;52.122;5.250;2023-03-01T01:30:01;28.8;;;23.1;;
62457;SDS011;48509;52.122;5.250;2023-03-01T01:33:17;28.6;;;22.4;;
62457;SDS011;48509;52.122;5.250;2023-03-01T01:34:53;27.0;;;21.3;;
62457;SDS011;48509;52.122;5.250;2023-03-01T01:36:30;29.9;;;24.4;;
62457;SDS011;48509;52.122;5.250;2023-03-01T01:38:09;27.6;;;24.3;;
62457;SDS011;48509;52.122;5.250;2023-03-01T01:41:21;29.0;;;23.5;;
62457;SDS011;48509;52.122;5.250;2023-03-01T01:42:59;31.5;;;24.0;;
62457;SDS011;48509;52.122;5.250;2023-03-01T01:44:35;32.21;;;25.2;;
62457;SDS011;48509;52.122;5.250;2023-03-01T01:47:57;28.0;;;24.5;;
62457;SDS011;48509;52.122;5.250;2023-03-01T01:49:40;31.8;;;24.2;;
62457;SDS011;48509;52.122;5.250;2023-03-01T01:51:21;31.8;;;26.2;;
62457;SDS011;48509;52.122;5.250;2023-03-01T01:53:01;35.0;;;26.3;;
62457;SDS011;48509;52.122;5.250;2023-03-01T01:56:21;32.71;;;25.6;;
62457;SDS011;48509;52.122;5.250;2023-03-01T01:58:02;40.4;;;32.6;;
62457;SDS011;48509;52.122;5.250;2023-03-01T01:59:43;31.3;;;27.3;;
62457;SDS011;48509;52.122;5.250;2023-03-01T02:01:25;32.3;;;26.5;;
62457;SDS011;48509;52.122;5.250;2023-03-01T02:04:44;26.6;;;21.1;;
62457;SDS011;48509;52.122;5.250;2023-03-01T02:06:25;27.6;;;22.5;;
62457;SDS011;48509;52.122;5.250;2023-03-01T02:08:05;34.9;;;27.9;;
62457;SDS011;48509;52.122;5.250;2023-03-01T02:09:45;32.1;;;25.4;;
62457;SDS011;48509;52.122;5.250;2023-03-01T02:13:02;32.6;;;26.3;;
62457;SDS011;48509;52.122;5.250;2023-03-01T02:14:40;33.9;;;29.0;;
62457;SDS011;48509;52.122;5.250;2023-03-01T02:16:16;33.3;;;27.1;;
62457;SDS011;48509;52.122;5.250;2023-03-01T02:17:53;33.71;;;27.3;;
62457;SDS011;48509;52.122;5.250;2023-03-01T02:21:37;31.5;;;25.5;;
62457;SDS011;48509;52.122;5.250;2023-03-01T02:23:24;34.81;;;28.1;;
62457;SDS011;48509;52.122;5.250;2023-03-01T02:25:03;31.2;;;26.2;;
62457;SDS011;48509;52.122;5.250;2023-03-01T02:26:51;29.8;;;24.5;;
62457;SDS011;48509;52.122;5.250;2023-03-01T02:28:31;34.1;;;29.0;;
62457;SDS011;48509;52.122;5.250;2023-03-01T02:31:46;37.31;;;30.4;;
62457;SDS011;48509;52.122;5.250;2023-03-01T02:33:24;32.0;;;26.2;;
62457;SDS011;48509;52.122;5.250;2023-03-01T02:35:01;31.7;;;26.7;;
62457;SDS011;48509;52.122;5.250;2023-03-01T02:36:38;35.21;;;29.1;;
62457;SDS011;48509;52.122;5.250;2023-03-01T02:39:56;33.5;;;28.8;;
62457;SDS011;48509;52.122;5.250;2023-03-01T02:41:37;37.31;;;30.0;;
62457;SDS011;48509;52.122;5.250;2023-03-01T02:43:17;26.7;;;23.2;;
62457;SDS011;48509;52.122;5.250;2023-03-01T02:44:57;34.21;;;28.1;;
62457;SDS011;48509;52.122;5.250;2023-03-01T02:48:18;33.1;;;26.8;;
62457;SDS011;48509;52.122;5.250;2023-03-01T02:49:55;42.1;;;34.5;;
62457;SDS011;48509;52.122;5.250;2023-03-01T02:51:38;31.6;;;26.5;;
62457;SDS011;48509;52.122;5.250;2023-03-01T02:53:25;29.0;;;22.9;;
62457;SDS011;48509;52.122;5.250;2023-03-01T02:56:49;30.7;;;26.2;;
62457;SDS011;48509;52.122;5.250;2023-03-01T02:58:27;32.8;;;27.5;;
62457;SDS011;48509;52.122;5.250;2023-03-01T03:00:04;36.81;;;27.9;;
62457;SDS011;48509;52.122;5.250;2023-03-01T03:01:44;38.1;;;30.6;;
62457;SDS011;48509;52.122;5.250;2023-03-01T03:04:57;34.9;;;27.8;;
62457;SDS011;48509;52.122;5.250;2023-03-01T03:06:33;40.5;;;31.6;;
62457;SDS011;48509;52.122;5.250;2023-03-01T03:08:10;34.71;;;27.3;;
62457;SDS011;48509;52.122;5.250;2023-03-01T03:11:22;41.4;;;31.7;;
62457;SDS011;48509;52.122;5.250;2023-03-01T03:12:59;30.2;;;23.9;;
62457;SDS011;48509;52.122;5.250;2023-03-01T03:14:37;37.4;;;30.4;;
62457;SDS011;48509;52.122;5.250;2023-03-01T03:17:50;38.0;;;30.8;;
62457;SDS011;48509;52.122;5.250;2023-03-01T03:19:28;40.4;;;32.6;;
62457;SDS011;48509;52.122;5.250;2023-03-01T03:21:06;35.6;;;29.2;;
62457;SDS011;48509;52.122;5.250;2023-03-01T03:22:43;28.6;;;24.0;;
62457;SDS011;48509;52.122;5.250;2023-03-01T03:25:55;31.1;;;26.1;;
62457;SDS011;48509;52.122;5.250;2023-03-01T03:27:31;39.71;;;32.0;;
62457;SDS011;48509;52.122;5.250;2023-03-01T03:29:08;38.71;;;31.4;;
62457;SDS011;48509;52.122;5.250;2023-03-01T03:32:20;34.0;;;27.5;;
62457;SDS011;48509;52.122;5.250;2023-03-01T03:33:56;38.71;;;32.3;;
62457;SDS011;48509;52.122;5.250;2023-03-01T03:35:34;32.9;;;27.3;;
62457;SDS011;48509;52.122;5.250;2023-03-01T03:37:15;40.6;;;29.9;;
62457;SDS011;48509;52.122;5.250;2023-03-01T03:40:28;34.31;;;28.1;;
62457;SDS011;48509;52.122;5.250;2023-03-01T03:42:08;40.6;;;34.21;;
62457;SDS011;48509;52.122;5.250;2023-03-01T03:43:44;40.81;;;33.4;;
62457;SDS011;48509;52.122;5.250;2023-03-01T03:46:56;46.1;;;32.9;;
62457;SDS011;48509;52.122;5.250;2023-03-01T03:48:32;33.6;;;27.4;;
62457;SDS011;48509;52.122;5.250;2023-03-01T03:50:10;40.21;;;30.2;;
62457;SDS011;48509;52.122;5.250;2023-03-01T03:53:24;42.1;;;34.0;;
62457;SDS011;48509;52.122;5.250;2023-03-01T03:55:03;37.4;;;30.8;;
62457;SDS011;48509;52.122;5.250;2023-03-01T03:56:40;40.1;;;30.9;;
62457;SDS011;48509;52.122;5.250;2023-03-01T03:58:16;39.9;;;31.8;;
62457;SDS011;48509;52.122;5.250;2023-03-01T04:01:30;38.9;;;32.9;;
62457;SDS011;48509;52.122;5.250;2023-03-01T04:03:07;40.81;;;34.0;;
62457;SDS011;48509;52.122;5.250;2023-03-01T04:04:45;44.4;;;33.9;;
62457;SDS011;48509;52.122;5.250;2023-03-01T04:07:58;43.0;;;36.31;;
62457;SDS011;48509;52.122;5.250;2023-03-01T04:09:35;39.0;;;31.4;;
62457;SDS011;48509;52.122;5.250;2023-03-01T04:11:11;46.5;;;35.6;;
62457;SDS011;48509;52.122;5.250;2023-03-01T04:12:48;41.8;;;32.9;;
62457;SDS011;48509;52.122;5.250;2023-03-01T04:16:00;38.71;;;30.4;;
62457;SDS011;48509;52.122;5.250;2023-03-01T04:17:37;39.4;;;31.6;;
62457;SDS011;48509;52.122;5.250;2023-03-01T04:19:13;39.6;;;32.21;;
62457;SDS011;48509;52.122;5.250;2023-03-01T04:22:26;33.0;;;26.1;;
62457;SDS011;48509;52.122;5.250;2023-03-01T04:24:02;46.2;;;36.31;;
62457;SDS011;48509;52.122;5.250;2023-03-01T04:25:39;41.9;;;29.6;;
62457;SDS011;48509;52.122;5.250;2023-03-01T04:28:54;35.9;;;30.2;;
62457;SDS011;48509;52.122;5.250;2023-03-01T04:30:30;41.2;;;33.6;;
62457;SDS011;48509;52.122;5.250;2023-03-01T04:32:06;39.81;;;31.3;;
62457;SDS011;48509;52.122;5.250;2023-03-01T04:33:43;38.5;;;31.1;;
62457;SDS011;48509;52.122;5.250;2023-03-01T04:36:56;41.9;;;33.6;;
62457;SDS011;48509;52.122;5.250;2023-03-01T04:38:32;44.6;;;32.4;;
62457;SDS011;48509;52.122;5.250;2023-03-01T04:40:09;44.7;;;36.1;;
62457;SDS011;48509;52.122;5.250;2023-03-01T04:43:23;43.7;;;36.4;;
62457;SDS011;48509;52.122;5.250;2023-03-01T04:44:59;42.5;;;35.81;;
62457;SDS011;48509;52.122;5.250;2023-03-01T04:46:35;40.31;;;33.8;;
62457;SDS011;48509;52.122;5.250;2023-03-01T04:49:48;40.1;;;33.4;;
62457;SDS011;48509;52.122;5.250;2023-03-01T04:51:25;39.1;;;31.6;;
62457;SDS011;48509;52.122;5.250;2023-03-01T04:53:01;39.81;;;32.9;;
62457;SDS011;48509;52.122;5.250;2023-03-01T04:54:38;36.71;;;30.0;;
62457;SDS011;48509;52.122;5.250;2023-03-01T04:57:51;40.6;;;32.5;;
62457;SDS011;48509;52.122;5.250;2023-03-01T04:59:29;45.4;;;33.9;;
62457;SDS011;48509;52.122;5.250;2023-03-01T05:01:08;40.6;;;32.3;;
62457;SDS011;48509;52.122;5.250;2023-03-01T05:04:24;37.31;;;33.0;;
62457;SDS011;48509;52.122;5.250;2023-03-01T05:06:00;43.2;;;34.6;;
62457;SDS011;48509;52.122;5.250;2023-03-01T05:07:36;46.9;;;34.1;;
62457;SDS011;48509;52.122;5.250;2023-03-01T05:10:49;41.2;;;33.6;;
62457;SDS011;48509;52.122;5.250;2023-03-01T05:12:28;46.5;;;36.31;;
62457;SDS011;48509;52.122;5.250;2023-03-01T05:15:42;45.0;;;35.5;;
62457;SDS011;48509;52.122;5.250;2023-03-01T05:18:54;42.4;;;34.4;;
62457;SDS011;48509;52.122;5.250;2023-03-01T05:20:30;44.8;;;32.9;;
62457;SDS011;48509;52.122;5.250;2023-03-01T05:22:06;39.9;;;32.4;;
62457;SDS011;48509;52.122;5.250;2023-03-01T05:25:20;43.7;;;33.8;;
62457;SDS011;48509;52.122;5.250;2023-03-01T05:26:57;38.4;;;33.4;;
62457;SDS011;48509;52.122;5.250;2023-03-01T05:28:34;44.4;;;33.5;;
62457;SDS011;48509;52.122;5.250;2023-03-01T05:30:11;36.5;;;30.8;;
62457;SDS011;48509;52.122;5.250;2023-03-01T05:33:25;39.81;;;32.3;;
62457;SDS011;48509;52.122;5.250;2023-03-01T05:35:03;44.9;;;35.0;;
62457;SDS011;48509;52.122;5.250;2023-03-01T05:36:40;41.7;;;34.0;;
62457;SDS011;48509;52.122;5.250;2023-03-01T05:39:52;46.5;;;34.6;;
62457;SDS011;48509;52.122;5.250;2023-03-01T05:41:28;46.2;;;35.71;;
62457;SDS011;48509;52.122;5.250;2023-03-01T05:43:04;46.1;;;35.9;;
62457;SDS011;48509;52.122;5.250;2023-03-01T05:46:18;47.2;;;37.21;;
62457;SDS011;48509;52.122;5.250;2023-03-01T05:47:54;43.2;;;33.1;;
62457;SDS011;48509;52.122;5.250;2023-03-01T05:49:31;42.5;;;34.81;;
62457;SDS011;48509;52.122;5.250;2023-03-01T05:51:07;40.5;;;33.5;;
62457;SDS011;48509;52.122;5.250;2023-03-01T05:54:21;42.8;;;32.6;;
62457;SDS011;48509;52.122;5.250;2023-03-01T05:55:58;44.4;;;35.21;;
62457;SDS011;48509;52.122;5.250;2023-03-01T05:57:35;38.5;;;32.21;;
62457;SDS011;48509;52.122;5.250;2023-03-01T06:00:47;42.0;;;33.4;;
62457;SDS011;48509;52.122;5.250;2023-03-01T06:02:24;44.5;;;36.0;;
62457;SDS011;48509;52.122;5.250;2023-03-01T06:04:00;40.21;;;31.7;;
62457;SDS011;48509;52.122;5.250;2023-03-01T06:07:14;42.8;;;31.6;;
62457;SDS011;48509;52.122;5.250;2023-03-01T06:08:51;45.4;;;32.4;;
62457;SDS011;48509;52.122;5.250;2023-03-01T06:10:28;41.1;;;33.3;;
62457;SDS011;48509;52.122;5.250;2023-03-01T06:12:05;43.6;;;34.9;;
62457;SDS011;48509;52.122;5.250;2023-03-01T06:15:19;45.6;;;34.81;;
62457;SDS011;48509;52.122;5.250;2023-03-01T06:16:57;43.3;;;33.6;;
62457;SDS011;48509;52.122;5.250;2023-03-01T06:18:34;41.1;;;32.5;;
62457;SDS011;48509;52.122;5.250;2023-03-01T06:21:50;44.6;;;35.31;;
62457;SDS011;48509;52.122;5.250;2023-03-01T06:23:26;45.1;;;34.81;;
62457;SDS011;48509;52.122;5.250;2023-03-01T06:25:03;44.5;;;35.0;;
62457;SDS011;48509;52.122;5.250;2023-03-01T06:26:40;46.9;;;35.5;;
62457;SDS011;48509;52.122;5.250;2023-03-01T06:29:52;47.6;;;36.5;;
62457;SDS011;48509;52.122;5.250;2023-03-01T06:31:29;45.2;;;34.5;;
62457;SDS011;48509;52.122;5.250;2023-03-01T06:33:05;45.7;;;32.8;;
62457;SDS011;48509;52.122;5.250;2023-03-01T06:36:17;47.0;;;33.71;;
62457;SDS011;48509;52.122;5.250;2023-03-01T06:37:53;50.0;;;36.81;;
62457;SDS011;48509;52.122;5.250;2023-03-01T06:39:29;45.4;;;33.71;;
62457;SDS011;48509;52.122;5.250;2023-03-01T06:42:46;45.8;;;34.71;;
62457;SDS011;48509;52.122;5.250;2023-03-01T06:44:25;43.1;;;33.5;;
62457;SDS011;48509;52.122;5.250;2023-03-01T06:46:03;58.8;;;42.7;;
62457;SDS011;48509;52.122;5.250;2023-03-01T06:47:40;51.2;;;37.21;;
62457;SDS011;48509;52.122;5.250;2023-03-01T06:50:53;47.6;;;36.0;;
62457;SDS011;48509;52.122;5.250;2023-03-01T06:52:29;50.2;;;37.4;;
62457;SDS011;48509;52.122;5.250;2023-03-01T06:54:07;50.5;;;37.0;;
62457;SDS011;48509;52.122;5.250;2023-03-01T06:57:19;46.5;;;36.4;;
62457;SDS011;48509;52.122;5.250;2023-03-01T06:58:55;45.1;;;35.9;;
62457;SDS011;48509;52.122;5.250;2023-03-01T07:00:31;49.2;;;37.9;;
62457;SDS011;48509;52.122;5.250;2023-03-01T07:03:46;45.6;;;36.6;;
62457;SDS011;48509;52.122;5.250;2023-03-01T07:05:23;51.0;;;40.81;;
62457;SDS011;48509;52.122;5.250;2023-03-01T07:06:59;47.6;;;36.71;;
62457;SDS011;48509;52.122;5.250;2023-03-01T07:08:35;48.4;;;38.4;;
62457;SDS011;48509;52.122;5.250;2023-03-01T07:11:48;46.0;;;36.4;;
62457;SDS011;48509;52.122;5.250;2023-03-01T07:13:25;45.4;;;35.6;;
62457;SDS011;48509;52.122;5.250;2023-03-01T07:15:02;47.4;;;36.6;;
62457;SDS011;48509;52.122;5.250;2023-03-01T07:18:16;50.5;;;38.21;;
62457;SDS011;48509;52.122;5.250;2023-03-01T07:19:52;42.0;;;35.21;;
62457;SDS011;48509;52.122;5.250;2023-03-01T07:21:29;48.2;;;37.4;;
62457;SDS011;48509;52.122;5.250;2023-03-01T07:24:43;43.0;;;34.0;;
62457;SDS011;48509;52.122;5.250;2023-03-01T07:26:19;46.3;;;34.81;;
62457;SDS011;48509;52.122;5.250;2023-03-01T07:27:55;44.9;;;33.3;;
62457;SDS011;48509;52.122;5.250;2023-03-01T07:29:31;46.9;;;35.81;;
62457;SDS011;48509;52.122;5.250;2023-03-01T07:32:43;44.9;;;34.5;;
62457;SDS011;48509;52.122;5.250;2023-03-01T07:34:20;48.9;;;36.9;;
62457;SDS011;48509;52.122;5.250;2023-03-01T07:35:56;47.5;;;36.1;;
62457;SDS011;48509;52.122;5.250;2023-03-01T07:39:09;43.8;;;32.3;;
62457;SDS011;48509;52.122;5.250;2023-03-01T07:40:46;42.4;;;34.5;;
62457;SDS011;48509;52.122;5.250;2023-03-01T07:42:22;41.4;;;32.4;;
62457;SDS011;48509;52.122;5.250;2023-03-01T07:45:35;50.5;;;38.81;;
62457;SDS011;48509;52.122;5.250;2023-03-01T07:47:11;47.8;;;38.0;;
62457;SDS011;48509;52.122;5.250;2023-03-01T07:48:47;48.9;;;38.81;;
62457;SDS011;48509;52.122;5.250;2023-03-01T07:50:23;54.8;;;42.2;;
62457;SDS011;48509;52.122;5.250;2023-03-01T07:53:35;45.2;;;35.5;;
62457;SDS011;48509;52.122;5.250;2023-03-01T07:55:13;48.7;;;38.9;;
62457;SDS011;48509;52.122;5.250;2023-03-01T07:56:50;40.4;;;33.0;;
62457;SDS011;48509;52.122;5.250;2023-03-01T08:00:03;41.5;;;33.71;;
62457;SDS011;48509;52.122;5.250;2023-03-01T08:01:40;47.7;;;38.5;;
62457;SDS011;48509;52.122;5.250;2023-03-01T08:03:16;48.6;;;36.81;;
62457;SDS011;48509;52.122;5.250;2023-03-01T08:06:29;42.0;;;34.1;;
62457;SDS011;48509;52.122;5.250;2023-03-01T08:08:05;41.9;;;32.4;;
62457;SDS011;48509;52.122;5.250;2023-03-01T08:09:41;43.4;;;33.9;;
62457;SDS011;48509;52.122;5.250;2023-03-01T08:11:17;53.1;;;39.4;;
62457;SDS011;48509;52.122;5.250;2023-03-01T08:14:30;45.3;;;37.1;;
62457;SDS011;48509;52.122;5.250;2023-03-01T08:16:07;43.8;;;34.5;;
62457;SDS011;48509;52.122;5.250;2023-03-01T08:17:45;41.8;;;33.3;;
62457;SDS011;48509;52.122;5.250;2023-03-01T08:21:02;44.0;;;33.0;;
62457;SDS011;48509;52.122;5.250;2023-03-01T08:22:40;42.7;;;33.71;;
62457;SDS011;48509;52.122;5.250;2023-03-01T08:24:16;47.4;;;36.6;;
62457;SDS011;48509;52.122;5.250;2023-03-01T08:27:28;47.7;;;37.81;;
62457;SDS011;48509;52.122;5.250;2023-03-01T08:29:04;44.4;;;31.9;;
62457;SDS011;48509;52.122;5.250;2023-03-01T08:30:40;46.9;;;33.0;;
62457;SDS011;48509;52.122;5.250;2023-03-01T08:32:17;41.3;;;32.71;;
62457;SDS011;48509;52.122;5.250;2023-03-01T08:35:33;42.3;;;35.0;;
62457;SDS011;48509;52.122;5.250;2023-03-01T08:37:09;42.1;;;32.21;;
62457;SDS011;48509;52.122;5.250;2023-03-01T08:38:45;39.5;;;31.3;;
62457;SDS011;48509;52.122;5.250;2023-03-01T08:41:58;41.7;;;31.0;;
62457;SDS011;48509;52.122;5.250;2023-03-01T08:43:34;37.1;;;29.2;;
62457;SDS011;48509;52.122;5.250;2023-03-01T08:45:10;35.9;;;25.8;;
62457;SDS011;48509;52.122;5.250;2023-03-01T08:48:23;44.4;;;31.6;;
62457;SDS011;48509;52.122;5.250;2023-03-01T08:50:00;34.4;;;26.8;;
62457;SDS011;48509;52.122;5.250;2023-03-01T08:51:38;37.1;;;28.0;;
62457;SDS011;48509;52.122;5.250;2023-03-01T08:53:15;30.8;;;25.4;;
62457;SDS011;48509;52.122;5.250;2023-03-01T08:56:27;32.0;;;23.4;;
62457;SDS011;48509;52.122;5.250;2023-03-01T08:58:03;31.1;;;21.7;;
62457;SDS011;48509;52.122;5.250;2023-03-01T08:59:39;29.8;;;22.4;;
62457;SDS011;48509;52.122;5.250;2023-03-01T09:02:54;26.0;;;19.5;;
62457;SDS011;48509;52.122;5.250;2023-03-01T09:04:31;24.5;;;19.41;;
62457;SDS011;48509;52.122;5.250;2023-03-01T09:06:07;25.1;;;18.7;;
62457;SDS011;48509;52.122;5.250;2023-03-01T09:07:44;26.5;;;18.91;;
62457;SDS011;48509;52.122;5.250;2023-03-01T09:10:56;22.9;;;16.0;;
62457;SDS011;48509;52.122;5.250;2023-03-01T09:12:32;22.8;;;15.9;;
62457;SDS011;48509;52.122;5.250;2023-03-01T09:14:09;20.6;;;15.2;;
62457;SDS011;48509;52.122;5.250;2023-03-01T09:17:21;23.4;;;16.8;;
62457;SDS011;48509;52.122;5.250;2023-03-01T09:18:57;22.3;;;16.5;;
62457;SDS011;48509;52.122;5.250;2023-03-01T09:20:33;19.8;;;16.11;;
62457;SDS011;48509;52.122;5.250;2023-03-01T09:23:46;21.1;;;15.1;;
62457;SDS011;48509;52.122;5.250;2023-03-01T09:25:24;19.8;;;15.1;;
62457;SDS011;48509;52.122;5.250;2023-03-01T09:27:00;22.1;;;14.3;;
62457;SDS011;48509;52.122;5.250;2023-03-01T09:30:13;18.8;;;14.3;;
62457;SDS011;48509;52.122;5.250;2023-03-01T09:31:49;19.7;;;14.3;;
62457;SDS011;48509;52.122;5.250;2023-03-01T09:33:26;20.0;;;14.0;;
62457;SDS011;48509;52.122;5.250;2023-03-01T09:35:03;20.8;;;14.0;;
62457;SDS011;48509;52.122;5.250;2023-03-01T09:38:16;18.2;;;14.2;;
62457;SDS011;48509;52.122;5.250;2023-03-01T09:39:52;19.5;;;14.7;;
62457;SDS011;48509;52.122;5.250;2023-03-01T09:41:33;17.0;;;12.4;;
62457;SDS011;48509;52.122;5.250;2023-03-01T09:43:34;12.8;;;8.71;;
62457;SDS011;48509;52.122;5.250;2023-03-01T09:45:26;12.8;;;8.5;;
62457;SDS011;48509;52.122;5.250;2023-03-01T09:48:55;12.9;;;9.4;;
62457;SDS011;48509;52.122;5.250;2023-03-01T09:50:38;14.3;;;8.9;;
62457;SDS011;48509;52.122;5.250;2023-03-01T09:52:19;12.3;;;8.5;;
62457;SDS011;48509;52.122;5.250;2023-03-01T09:54:05;15.0;;;10.1;;
62457;SDS011;48509;52.122;5.250;2023-03-01T09:57:25;15.9;;;9.21;;
62457;SDS011;48509;52.122;5.250;2023-03-01T09:59:09;15.1;;;9.9;;
62457;SDS011;48509;52.122;5.250;2023-03-01T10:00:59;14.2;;;9.21;;
62457;SDS011;48509;52.122;5.250;2023-03-01T10:02:47;14.9;;;9.6;;
62457;SDS011;48509;52.122;5.250;2023-03-01T10:04:28;13.6;;;9.4;;
62457;SDS011;48509;52.122;5.250;2023-03-01T10:08:01;15.3;;;9.6;;
62457;SDS011;48509;52.122;5.250;2023-03-01T10:10:01;12.3;;;9.31;;
62457;SDS011;48509;52.122;5.250;2023-03-01T10:11:41;11.7;;;8.6;;
62457;SDS011;48509;52.122;5.250;2023-03-01T10:13:21;13.7;;;9.21;;
62457;SDS011;48509;52.122;5.250;2023-03-01T10:15:06;15.3;;;9.21;;
62457;SDS011;48509;52.122;5.250;2023-03-01T10:16:48;13.7;;;9.81;;
62457;SDS011;48509;52.122;5.250;2023-03-01T10:20:13;9.71;;;7.4;;
62457;SDS011;48509;52.122;5.250;2023-03-01T10:22:00;11.8;;;8.2;;
62457;SDS011;48509;52.122;5.250;2023-03-01T10:23:45;10.0;;;6.5;;
62457;SDS011;48509;52.122;5.250;2023-03-01T10:25:32;7.9;;;6.1;;
62457;SDS011;48509;52.122;5.250;2023-03-01T10:27:23;8.71;;;6.5;;
62457;SDS011;48509;52.122;5.250;2023-03-01T10:30:40;9.1;;;6.6;;
62457;SDS011;48509;52.122;5.250;2023-03-01T10:32:17;12.4;;;6.6;;
62457;SDS011;48509;52.122;5.250;2023-03-01T10:33:54;10.6;;;6.3;;
62457;SDS011;48509;52.122;5.250;2023-03-01T10:37:10;8.5;;;6.5;;
62457;SDS011;48509;52.122;5.250;2023-03-01T10:38:49;11.4;;;6.3;;
62457;SDS011;48509;52.122;5.250;2023-03-01T10:40:27;11.0;;;6.3;;
62457;SDS011;48509;52.122;5.250;2023-03-01T10:42:04;6.9;;;5.5;;
62457;SDS011;48509;52.122;5.250;2023-03-01T10:45:34;7.3;;;5.3;;
62457;SDS011;48509;52.122;5.250;2023-03-01T10:47:13;9.0;;;6.0;;
62457;SDS011;48509;52.122;5.250;2023-03-01T10:49:25;9.4;;;6.9;;
62457;SDS011;48509;52.122;5.250;2023-03-01T10:51:05;9.31;;;6.6;;
62457;SDS011;48509;52.122;5.250;2023-03-01T10:52:42;8.31;;;5.6;;
62457;SDS011;48509;52.122;5.250;2023-03-01T10:54:34;10.21;;;5.6;;
62457;SDS011;48509;52.122;5.250;2023-03-01T10:57:48;7.6;;;4.91;;
62457;SDS011;48509;52.122;5.250;2023-03-01T10:59:27;8.71;;;5.11;;
62457;SDS011;48509;52.122;5.250;2023-03-01T11:01:09;7.0;;;4.91;;
62457;SDS011;48509;52.122;5.250;2023-03-01T11:03:08;8.1;;;5.0;;
62457;SDS011;48509;52.122;5.250;2023-03-01T11:06:58;8.0;;;5.3;;
62457;SDS011;48509;52.122;5.250;2023-03-01T11:08:37;5.9;;;4.61;;
62457;SDS011;48509;52.122;5.250;2023-03-01T11:10:18;8.1;;;4.91;;
62457;SDS011;48509;52.122;5.250;2023-03-01T11:11:57;8.5;;;5.4;;
62457;SDS011;48509;52.122;5.250;2023-03-01T11:13:36;7.3;;;5.3;;
62457;SDS011;48509;52.122;5.250;2023-03-01T11:15:25;7.6;;;5.3;;
62457;SDS011;48509;52.122;5.250;2023-03-01T11:18:55;9.81;;;6.5;;
62457;SDS011;48509;52.122;5.250;2023-03-01T11:20:33;8.81;;;6.1;;
62457;SDS011;48509;52.122;5.250;2023-03-01T11:22:12;11.1;;;6.8;;
62457;SDS011;48509;52.122;5.250;2023-03-01T11:23:53;10.1;;;6.8;;
62457;SDS011;48509;52.122;5.250;2023-03-01T11:27:19;10.1;;;6.8;;
62457;SDS011;48509;52.122;5.250;2023-03-01T11:29:00;8.31;;;5.11;;
62457;SDS011;48509;52.122;5.250;2023-03-01T11:30:43;7.5;;;4.61;;
62457;SDS011;48509;52.122;5.250;2023-03-01T11:32:27;7.6;;;4.8;;
62457;SDS011;48509;52.122;5.250;2023-03-01T11:34:23;7.2;;;4.1;;
62457;SDS011;48509;52.122;5.250;2023-03-01T11:36:26;9.21;;;4.3;;
62457;SDS011;48509;52.122;5.250;2023-03-01T11:39:58;6.6;;;4.5;;
62457;SDS011;48509;52.122;5.250;2023-03-01T11:41:42;9.81;;;4.41;;
62457;SDS011;48509;52.122;5.250;2023-03-01T11:43:26;8.2;;;4.7;;
62457;SDS011;48509;52.122;5.250;2023-03-01T11:45:10;7.5;;;4.61;;
62457;SDS011;48509;52.122;5.250;2023-03-01T11:46:51;7.1;;;4.7;;
62457;SDS011;48509;52.122;5.250;2023-03-01T11:49:17;5.7;;;4.61;;
62457;SDS011;48509;52.122;5.250;2023-03-01T11:52:18;7.6;;;4.7;;
62457;SDS011;48509;52.122;5.250;2023-03-01T11:54:13;6.7;;;4.5;;
62457;SDS011;48509;52.122;5.250;2023-03-01T11:56:03;5.5;;;4.5;;
62457;SDS011;48509;52.122;5.250;2023-03-01T11:57:57;5.7;;;4.3;;
62457;SDS011;48509;52.122;5.250;2023-03-01T12:00:06;6.4;;;4.1;;
62457;SDS011;48509;52.122;5.250;2023-03-01T12:02:07;5.3;;;4.3;;
62457;SDS011;48509;52.122;5.250;2023-03-01T12:05:03;9.31;;;4.61;;
62457;SDS011;48509;52.122;5.250;2023-03-01T12:07:56;5.6;;;4.5;;
62457;SDS011;48509;52.122;5.250;2023-03-01T12:11:39;6.0;;;4.5;;
62457;SDS011;48509;52.122;5.250;2023-03-01T12:13:41;6.6;;;4.1;;
62457;SDS011;48509;52.122;5.250;2023-03-01T12:15:43;6.2;;;4.3;;
62457;SDS011;48509;52.122;5.250;2023-03-01T12:17:53;5.11;;;3.9;;
62457;SDS011;48509;52.122;5.250;2023-03-01T12:20:01;6.4;;;4.1;;
62457;SDS011;48509;52.122;5.250;2023-03-01T12:21:53;4.41;;;3.8;;
62457;SDS011;48509;52.122;5.250;2023-03-01T12:24:54;6.5;;;4.0;;
62457;SDS011;48509;52.122;5.250;2023-03-01T12:26:57;7.7;;;4.2;;
62457;SDS011;48509;52.122;5.250;2023-03-01T12:28:55;6.8;;;4.5;;
62457;SDS011;48509;52.122;5.250;2023-03-01T12:31:05;6.1;;;4.1;;
62457;SDS011;48509;52.122;5.250;2023-03-01T12:33:50;8.2;;;4.1;;
62457;SDS011;48509;52.122;5.250;2023-03-01T12:35:36;8.1;;;4.41;;
62457;SDS011;48509;52.122;5.250;2023-03-01T12:37:29;5.3;;;4.2;;
62457;SDS011;48509;52.122;5.250;2023-03-01T12:39:23;5.8;;;4.3;;
62457;SDS011;48509;52.122;5.250;2023-03-01T12:41:33;6.6;;;4.3;;